sensor_id;sensor_type;location;lat;lon;timestamp;temperature;humidity
73149;SHT30;61346;48.930;2.266;2022-08-01T00:00:43;23.98;60.50
73149;SHT30;61346;48.930;2.266;2022-08-01T00:03:09;23.94;60.73
73149;SHT30;61346;48.930;2.266;2022-08-01T00:05:34;23.90;59.82
73149;SHT30;61346;48.930;2.266;2022-08-01T00:08:00;23.92;59.89
73149;SHT30;61346;48.930;2.266;2022-08-01T00:10:25;23.89;60.64
73149;SHT30;61346;48.930;2.266;2022-08-01T00:12:51;23.89;60.98
73149;SHT30;61346;48.930;2.266;2022-08-01T00:15:17;23.85;60.55
73149;SHT30;61346;48.930;2.266;2022-08-01T00:17:45;23.84;60.71
73149;SHT30;61346;48.930;2.266;2022-08-01T00:20:13;23.85;60.25
73149;SHT30;61346;48.930;2.266;2022-08-01T00:22:39;23.85;60.07
73149;SHT30;61346;48.930;2.266;2022-08-01T00:25:05;23.85;60.96
73149;SHT30;61346;48.930;2.266;2022-08-01T00:27:32;23.82;60.35
73149;SHT30;61346;48.930;2.266;2022-08-01T00:29:58;23.85;60.13
73149;SHT30;61346;48.930;2.266;2022-08-01T00:32:26;23.81;60.25
73149;SHT30;61346;48.930;2.266;2022-08-01T00:34:51;23.81;60.13
73149;SHT30;61346;48.930;2.266;2022-08-01T00:37:17;23.81;60.40
73149;SHT30;61346;48.930;2.266;2022-08-01T00:39:42;23.77;60.29
73149;SHT30;61346;48.930;2.266;2022-08-01T00:42:12;23.74;60.11
73149;SHT30;61346;48.930;2.266;2022-08-01T00:44:40;23.75;60.04
73149;SHT30;61346;48.930;2.266;2022-08-01T00:47:06;23.71;60.04
73149;SHT30;61346;48.930;2.266;2022-08-01T00:49:32;23.67;61.35
73149;SHT30;61346;48.930;2.266;2022-08-01T00:51:58;23.61;60.43
73149;SHT30;61346;48.930;2.266;2022-08-01T00:54:25;23.61;60.35
73149;SHT30;61346;48.930;2.266;2022-08-01T00:56:51;23.60;60.52
73149;SHT30;61346;48.930;2.266;2022-08-01T00:59:17;23.57;60.68
73149;SHT30;61346;48.930;2.266;2022-08-01T01:01:43;23.55;60.52
73149;SHT30;61346;48.930;2.266;2022-08-01T01:04:09;23.55;60.93
73149;SHT30;61346;48.930;2.266;2022-08-01T01:06:51;23.61;60.43
73149;SHT30;61346;48.930;2.266;2022-08-01T01:12:47;23.65;61.76
73149;SHT30;61346;48.930;2.266;2022-08-01T01:15:30;23.65;60.54
73149;SHT30;61346;48.930;2.266;2022-08-01T01:18:11;23.69;60.81
73149;SHT30;61346;48.930;2.266;2022-08-01T01:20:40;23.68;60.51
73149;SHT30;61346;48.930;2.266;2022-08-01T01:23:32;23.67;60.49
73149;SHT30;61346;48.930;2.266;2022-08-01T01:29:13;23.67;60.51
73149;SHT30;61346;48.930;2.266;2022-08-01T01:31:46;23.64;60.76
73149;SHT30;61346;48.930;2.266;2022-08-01T01:34:15;23.65;60.49
73149;SHT30;61346;48.930;2.266;2022-08-01T01:36:43;23.67;60.47
73149;SHT30;61346;48.930;2.266;2022-08-01T01:39:10;23.64;60.55
73149;SHT30;61346;48.930;2.266;2022-08-01T01:41:37;23.67;60.58
73149;SHT30;61346;48.930;2.266;2022-08-01T01:44:05;23.64;61.05
73149;SHT30;61346;48.930;2.266;2022-08-01T01:46:31;23.64;61.38
73149;SHT30;61346;48.930;2.266;2022-08-01T01:48:58;23.58;61.77
73149;SHT30;61346;48.930;2.266;2022-08-01T01:51:25;23.58;61.05
73149;SHT30;61346;48.930;2.266;2022-08-01T01:53:53;23.62;61.11
73149;SHT30;61346;48.930;2.266;2022-08-01T01:56:20;23.65;61.43
73149;SHT30;61346;48.930;2.266;2022-08-01T01:58:51;23.68;60.83
73149;SHT30;61346;48.930;2.266;2022-08-01T02:01:18;23.72;61.55
73149;SHT30;61346;48.930;2.266;2022-08-01T02:03:45;23.72;61.57
73149;SHT30;61346;48.930;2.266;2022-08-01T02:06:13;23.74;61.12
73149;SHT30;61346;48.930;2.266;2022-08-01T02:08:40;23.75;61.16
73149;SHT30;61346;48.930;2.266;2022-08-01T02:11:07;23.78;61.17
73149;SHT30;61346;48.930;2.266;2022-08-01T02:13:48;23.75;61.54
73149;SHT30;61346;48.930;2.266;2022-08-01T02:16:15;23.72;62.41
73149;SHT30;61346;48.930;2.266;2022-08-01T02:18:44;23.69;61.44
73149;SHT30;61346;48.930;2.266;2022-08-01T02:21:12;23.74;61.37
73149;SHT30;61346;48.930;2.266;2022-08-01T02:23:41;23.72;61.52
73149;SHT30;61346;48.930;2.266;2022-08-01T02:26:10;23.69;62.51
73149;SHT30;61346;48.930;2.266;2022-08-01T02:28:46;23.65;62.62
73149;SHT30;61346;48.930;2.266;2022-08-01T02:31:14;23.62;62.13
73149;SHT30;61346;48.930;2.266;2022-08-01T02:33:48;23.61;62.16
73149;SHT30;61346;48.930;2.266;2022-08-01T02:36:16;23.62;62.18
73149;SHT30;61346;48.930;2.266;2022-08-01T02:38:44;23.64;62.02
73149;SHT30;61346;48.930;2.266;2022-08-01T02:41:19;23.65;61.83
73149;SHT30;61346;48.930;2.266;2022-08-01T02:43:49;23.64;61.88
73149;SHT30;61346;48.930;2.266;2022-08-01T02:46:29;23.67;61.78
73149;SHT30;61346;48.930;2.266;2022-08-01T02:48:58;23.68;62.07
73149;SHT30;61346;48.930;2.266;2022-08-01T02:51:25;23.69;62.14
73149;SHT30;61346;48.930;2.266;2022-08-01T02:53:53;23.68;61.95
73149;SHT30;61346;48.930;2.266;2022-08-01T02:56:21;23.68;62.45
73149;SHT30;61346;48.930;2.266;2022-08-01T02:58:49;23.68;62.11
73149;SHT30;61346;48.930;2.266;2022-08-01T03:01:16;23.68;62.50
73149;SHT30;61346;48.930;2.266;2022-08-01T03:03:44;23.64;63.18
73149;SHT30;61346;48.930;2.266;2022-08-01T03:06:11;23.58;62.88
73149;SHT30;61346;48.930;2.266;2022-08-01T03:08:38;23.57;62.46
73149;SHT30;61346;48.930;2.266;2022-08-01T03:11:05;23.58;62.36
73149;SHT30;61346;48.930;2.266;2022-08-01T03:13:35;23.60;62.39
73149;SHT30;61346;48.930;2.266;2022-08-01T03:16:01;23.60;62.40
73149;SHT30;61346;48.930;2.266;2022-08-01T03:18:28;23.61;62.34
73149;SHT30;61346;48.930;2.266;2022-08-01T03:20:59;23.62;62.42
73149;SHT30;61346;48.930;2.266;2022-08-01T03:23:27;23.64;62.38
73149;SHT30;61346;48.930;2.266;2022-08-01T03:25:54;23.62;62.80
73149;SHT30;61346;48.930;2.266;2022-08-01T03:28:24;23.60;62.50
73149;SHT30;61346;48.930;2.266;2022-08-01T03:30:53;23.61;62.42
73149;SHT30;61346;48.930;2.266;2022-08-01T03:33:25;23.64;62.23
73149;SHT30;61346;48.930;2.266;2022-08-01T03:35:54;23.65;62.54
73149;SHT30;61346;48.930;2.266;2022-08-01T03:38:23;23.62;62.23
73149;SHT30;61346;48.930;2.266;2022-08-01T03:40:53;23.67;62.18
73149;SHT30;61346;48.930;2.266;2022-08-01T03:43:32;23.62;62.28
73149;SHT30;61346;48.930;2.266;2022-08-01T03:46:03;23.64;62.28
73149;SHT30;61346;48.930;2.266;2022-08-01T03:48:38;23.61;62.46
73149;SHT30;61346;48.930;2.266;2022-08-01T03:51:05;23.61;62.70
73149;SHT30;61346;48.930;2.266;2022-08-01T03:53:33;23.57;62.55
73149;SHT30;61346;48.930;2.266;2022-08-01T03:56:02;23.53;63.06
73149;SHT30;61346;48.930;2.266;2022-08-01T03:58:31;23.54;63.21
73149;SHT30;61346;48.930;2.266;2022-08-01T04:00:58;23.49;63.01
73149;SHT30;61346;48.930;2.266;2022-08-01T04:03:24;23.46;62.84
73149;SHT30;61346;48.930;2.266;2022-08-01T04:05:50;23.41;63.40
73149;SHT30;61346;48.930;2.266;2022-08-01T04:08:16;23.43;63.48
73149;SHT30;61346;48.930;2.266;2022-08-01T04:10:41;23.41;63.46
73149;SHT30;61346;48.930;2.266;2022-08-01T04:13:10;23.37;64.37
73149;SHT30;61346;48.930;2.266;2022-08-01T04:15:35;23.37;63.24
73149;SHT30;61346;48.930;2.266;2022-08-01T04:18:01;23.34;63.19
73149;SHT30;61346;48.930;2.266;2022-08-01T04:20:28;23.34;63.92
73149;SHT30;61346;48.930;2.266;2022-08-01T04:22:56;23.30;63.59
73149;SHT30;61346;48.930;2.266;2022-08-01T04:25:25;23.31;63.10
73149;SHT30;61346;48.930;2.266;2022-08-01T04:27:57;23.31;63.60
73149;SHT30;61346;48.930;2.266;2022-08-01T04:30:27;23.34;63.33
73149;SHT30;61346;48.930;2.266;2022-08-01T04:32:59;23.34;63.20
73149;SHT30;61346;48.930;2.266;2022-08-01T04:35:26;23.34;63.65
73149;SHT30;61346;48.930;2.266;2022-08-01T04:37:53;23.34;63.22
73149;SHT30;61346;48.930;2.266;2022-08-01T04:40:23;23.33;63.03
73149;SHT30;61346;48.930;2.266;2022-08-01T04:42:51;23.27;64.06
73149;SHT30;61346;48.930;2.266;2022-08-01T04:45:19;23.26;63.85
73149;SHT30;61346;48.930;2.266;2022-08-01T04:47:47;23.22;64.10
73149;SHT30;61346;48.930;2.266;2022-08-01T04:50:16;23.16;63.47
73149;SHT30;61346;48.930;2.266;2022-08-01T04:52:42;23.16;64.62
73149;SHT30;61346;48.930;2.266;2022-08-01T04:55:08;23.13;64.53
73149;SHT30;61346;48.930;2.266;2022-08-01T04:57:39;23.09;65.80
73149;SHT30;61346;48.930;2.266;2022-08-01T05:00:08;23.06;64.71
73149;SHT30;61346;48.930;2.266;2022-08-01T05:02:33;23.09;65.96
73149;SHT30;61346;48.930;2.266;2022-08-01T05:04:59;23.07;65.72
73149;SHT30;61346;48.930;2.266;2022-08-01T05:07:25;23.05;65.43
73149;SHT30;61346;48.930;2.266;2022-08-01T05:09:54;23.03;65.06
73149;SHT30;61346;48.930;2.266;2022-08-01T05:12:20;23.00;64.88
73149;SHT30;61346;48.930;2.266;2022-08-01T05:14:47;23.02;65.40
73149;SHT30;61346;48.930;2.266;2022-08-01T05:17:13;23.03;64.84
73149;SHT30;61346;48.930;2.266;2022-08-01T05:19:41;23.02;64.96
73149;SHT30;61346;48.930;2.266;2022-08-01T05:22:09;23.05;64.99
73149;SHT30;61346;48.930;2.266;2022-08-01T05:24:39;23.03;64.80
73149;SHT30;61346;48.930;2.266;2022-08-01T05:27:04;23.06;64.76
73149;SHT30;61346;48.930;2.266;2022-08-01T05:29:31;23.05;65.06
73149;SHT30;61346;48.930;2.266;2022-08-01T05:31:57;23.05;64.90
73149;SHT30;61346;48.930;2.266;2022-08-01T05:34:24;23.06;65.40
73149;SHT30;61346;48.930;2.266;2022-08-01T05:36:51;23.05;64.49
73149;SHT30;61346;48.930;2.266;2022-08-01T05:39:16;23.07;64.61
73149;SHT30;61346;48.930;2.266;2022-08-01T05:41:42;23.12;64.52
73149;SHT30;61346;48.930;2.266;2022-08-01T05:44:08;23.12;64.89
73149;SHT30;61346;48.930;2.266;2022-08-01T05:46:37;23.12;64.36
73149;SHT30;61346;48.930;2.266;2022-08-01T05:49:06;23.17;64.23
73149;SHT30;61346;48.930;2.266;2022-08-01T05:51:32;23.22;63.85
73149;SHT30;61346;48.930;2.266;2022-08-01T05:54:00;23.24;63.55
73149;SHT30;61346;48.930;2.266;2022-08-01T05:56:26;23.23;64.30
73149;SHT30;61346;48.930;2.266;2022-08-01T05:58:52;23.27;64.40
73149;SHT30;61346;48.930;2.266;2022-08-01T06:01:18;23.28;64.03
73149;SHT30;61346;48.930;2.266;2022-08-01T06:03:49;23.31;64.15
73149;SHT30;61346;48.930;2.266;2022-08-01T06:06:17;23.28;63.99
73149;SHT30;61346;48.930;2.266;2022-08-01T06:08:42;23.36;63.94
73149;SHT30;61346;48.930;2.266;2022-08-01T06:11:08;23.31;63.53
73149;SHT30;61346;48.930;2.266;2022-08-01T06:13:33;23.31;63.48
73149;SHT30;61346;48.930;2.266;2022-08-01T06:15:59;23.22;64.17
73149;SHT30;61346;48.930;2.266;2022-08-01T06:18:24;23.13;63.86
73149;SHT30;61346;48.930;2.266;2022-08-01T06:20:50;23.09;64.25
73149;SHT30;61346;48.930;2.266;2022-08-01T06:23:18;23.09;64.21
73149;SHT30;61346;48.930;2.266;2022-08-01T06:25:45;23.09;64.18
73149;SHT30;61346;48.930;2.266;2022-08-01T06:28:13;23.09;64.21
73149;SHT30;61346;48.930;2.266;2022-08-01T06:30:59;23.06;64.55
73149;SHT30;61346;48.930;2.266;2022-08-01T06:33:25;23.06;64.78
73149;SHT30;61346;48.930;2.266;2022-08-01T06:35:51;23.06;65.00
73149;SHT30;61346;48.930;2.266;2022-08-01T06:38:16;23.09;64.52
73149;SHT30;61346;48.930;2.266;2022-08-01T06:40:42;23.09;64.75
73149;SHT30;61346;48.930;2.266;2022-08-01T06:43:07;23.09;64.54
73149;SHT30;61346;48.930;2.266;2022-08-01T06:45:33;23.14;64.51
73149;SHT30;61346;48.930;2.266;2022-08-01T06:47:58;23.22;64.42
73149;SHT30;61346;48.930;2.266;2022-08-01T06:50:23;23.24;63.98
73149;SHT30;61346;48.930;2.266;2022-08-01T06:52:49;23.26;64.26
73149;SHT30;61346;48.930;2.266;2022-08-01T06:55:14;23.20;64.80
73149;SHT30;61346;48.930;2.266;2022-08-01T06:57:51;23.16;65.14
73149;SHT30;61346;48.930;2.266;2022-08-01T07:00:20;23.10;65.10
73149;SHT30;61346;48.930;2.266;2022-08-01T07:02:49;23.10;64.67
73149;SHT30;61346;48.930;2.266;2022-08-01T07:05:14;23.20;64.61
73149;SHT30;61346;48.930;2.266;2022-08-01T07:07:43;23.34;64.17
73149;SHT30;61346;48.930;2.266;2022-08-01T07:10:09;23.51;63.80
73149;SHT30;61346;48.930;2.266;2022-08-01T07:12:35;23.69;63.17
73149;SHT30;61346;48.930;2.266;2022-08-01T07:15:04;23.78;62.75
73149;SHT30;61346;48.930;2.266;2022-08-01T07:17:30;23.88;62.48
73149;SHT30;61346;48.930;2.266;2022-08-01T07:19:55;23.89;62.35
73149;SHT30;61346;48.930;2.266;2022-08-01T07:22:22;23.96;62.25
73149;SHT30;61346;48.930;2.266;2022-08-01T07:24:47;24.02;61.95
73149;SHT30;61346;48.930;2.266;2022-08-01T07:27:13;23.98;61.90
73149;SHT30;61346;48.930;2.266;2022-08-01T07:29:38;23.94;61.93
73149;SHT30;61346;48.930;2.266;2022-08-01T07:32:04;23.88;62.05
73149;SHT30;61346;48.930;2.266;2022-08-01T07:34:29;23.89;62.14
73149;SHT30;61346;48.930;2.266;2022-08-01T07:36:55;23.89;61.98
73149;SHT30;61346;48.930;2.266;2022-08-01T07:39:21;23.94;61.83
73149;SHT30;61346;48.930;2.266;2022-08-01T07:41:46;24.08;61.66
73149;SHT30;61346;48.930;2.266;2022-08-01T07:44:12;24.17;61.41
73149;SHT30;61346;48.930;2.266;2022-08-01T07:46:37;24.20;61.33
73149;SHT30;61346;48.930;2.266;2022-08-01T07:49:03;24.22;61.31
73149;SHT30;61346;48.930;2.266;2022-08-01T07:51:28;24.30;61.13
73149;SHT30;61346;48.930;2.266;2022-08-01T07:53:53;24.41;60.90
73149;SHT30;61346;48.930;2.266;2022-08-01T07:56:19;24.50;60.68
73149;SHT30;61346;48.930;2.266;2022-08-01T07:58:44;24.64;60.44
73149;SHT30;61346;48.930;2.266;2022-08-01T08:01:11;24.67;59.95
73149;SHT30;61346;48.930;2.266;2022-08-01T08:03:40;24.61;59.98
73149;SHT30;61346;48.930;2.266;2022-08-01T08:06:05;24.59;60.19
73149;SHT30;61346;48.930;2.266;2022-08-01T08:08:31;24.63;60.22
73149;SHT30;61346;48.930;2.266;2022-08-01T08:10:56;24.65;60.08
73149;SHT30;61346;48.930;2.266;2022-08-01T08:13:22;24.70;60.10
73149;SHT30;61346;48.930;2.266;2022-08-01T08:15:47;24.70;59.98
73149;SHT30;61346;48.930;2.266;2022-08-01T08:18:13;24.78;60.00
73149;SHT30;61346;48.930;2.266;2022-08-01T08:20:38;24.94;59.66
73149;SHT30;61346;48.930;2.266;2022-08-01T08:23:04;25.08;59.43
73149;SHT30;61346;48.930;2.266;2022-08-01T08:25:49;25.35;59.04
73149;SHT30;61346;48.930;2.266;2022-08-01T08:28:14;25.51;58.62
73149;SHT30;61346;48.930;2.266;2022-08-01T08:30:40;25.53;58.32
73149;SHT30;61346;48.930;2.266;2022-08-01T08:33:06;25.47;58.20
73149;SHT30;61346;48.930;2.266;2022-08-01T08:35:32;25.37;58.45
73149;SHT30;61346;48.930;2.266;2022-08-01T08:37:57;25.46;58.60
73149;SHT30;61346;48.930;2.266;2022-08-01T08:40:29;25.64;57.34
73149;SHT30;61346;48.930;2.266;2022-08-01T08:42:55;25.73;57.33
73149;SHT30;61346;48.930;2.266;2022-08-01T08:45:22;25.81;57.25
73149;SHT30;61346;48.930;2.266;2022-08-01T08:47:48;25.91;56.69
73149;SHT30;61346;48.930;2.266;2022-08-01T08:50:15;26.05;56.88
73149;SHT30;61346;48.930;2.266;2022-08-01T08:52:43;26.21;56.29
73149;SHT30;61346;48.930;2.266;2022-08-01T08:55:11;26.31;56.01
73149;SHT30;61346;48.930;2.266;2022-08-01T08:57:40;26.35;55.07
73149;SHT30;61346;48.930;2.266;2022-08-01T09:00:06;26.35;55.39
73149;SHT30;61346;48.930;2.266;2022-08-01T09:02:34;26.31;55.30
73149;SHT30;61346;48.930;2.266;2022-08-01T09:05:01;26.25;55.33
73149;SHT30;61346;48.930;2.266;2022-08-01T09:07:27;26.18;55.51
73149;SHT30;61346;48.930;2.266;2022-08-01T09:09:52;26.17;55.77
73149;SHT30;61346;48.930;2.266;2022-08-01T09:12:18;26.06;55.81
73149;SHT30;61346;48.930;2.266;2022-08-01T09:14:46;26.06;55.90
73149;SHT30;61346;48.930;2.266;2022-08-01T09:17:12;26.21;55.76
73149;SHT30;61346;48.930;2.266;2022-08-01T09:19:54;26.33;55.23
73149;SHT30;61346;48.930;2.266;2022-08-01T09:22:24;26.35;54.65
73149;SHT30;61346;48.930;2.266;2022-08-01T09:25:07;26.33;54.45
73149;SHT30;61346;48.930;2.266;2022-08-01T09:27:34;26.26;54.23
73149;SHT30;61346;48.930;2.266;2022-08-01T09:30:16;26.14;54.24
73149;SHT30;61346;48.930;2.266;2022-08-01T09:33:00;26.05;54.25
73149;SHT30;61346;48.930;2.266;2022-08-01T09:35:30;26.00;54.65
73149;SHT30;61346;48.930;2.266;2022-08-01T09:38:22;25.85;54.88
73149;SHT30;61346;48.930;2.266;2022-08-01T09:40:53;25.81;55.20
73149;SHT30;61346;48.930;2.266;2022-08-01T09:43:21;25.87;55.19
73149;SHT30;61346;48.930;2.266;2022-08-01T09:45:47;25.92;55.07
73149;SHT30;61346;48.930;2.266;2022-08-01T09:48:13;25.94;55.07
73149;SHT30;61346;48.930;2.266;2022-08-01T09:50:43;25.85;55.38
73149;SHT30;61346;48.930;2.266;2022-08-01T09:53:12;25.91;55.18
73149;SHT30;61346;48.930;2.266;2022-08-01T09:55:38;26.02;55.27
73149;SHT30;61346;48.930;2.266;2022-08-01T09:58:04;26.11;55.34
73149;SHT30;61346;48.930;2.266;2022-08-01T10:00:31;26.08;55.20
73149;SHT30;61346;48.930;2.266;2022-08-01T10:02:57;26.02;55.11
73149;SHT30;61346;48.930;2.266;2022-08-01T10:05:34;26.04;55.40
73149;SHT30;61346;48.930;2.266;2022-08-01T10:08:02;26.08;54.98
73149;SHT30;61346;48.930;2.266;2022-08-01T10:10:29;26.17;54.95
73149;SHT30;61346;48.930;2.266;2022-08-01T10:12:56;26.43;54.60
73149;SHT30;61346;48.930;2.266;2022-08-01T10:15:23;26.77;54.18
73149;SHT30;61346;48.930;2.266;2022-08-01T10:17:57;27.18;53.54
73149;SHT30;61346;48.930;2.266;2022-08-01T10:20:26;27.70;52.66
73149;SHT30;61346;48.930;2.266;2022-08-01T10:22:53;28.18;51.77
73149;SHT30;61346;48.930;2.266;2022-08-01T10:25:20;28.53;49.66
73149;SHT30;61346;48.930;2.266;2022-08-01T10:27:48;28.68;50.21
73149;SHT30;61346;48.930;2.266;2022-08-01T10:30:15;28.75;49.29
73149;SHT30;61346;48.930;2.266;2022-08-01T10:32:41;28.69;49.74
73149;SHT30;61346;48.930;2.266;2022-08-01T10:35:08;28.59;50.24
73149;SHT30;61346;48.930;2.266;2022-08-01T10:37:34;28.55;50.39
73149;SHT30;61346;48.930;2.266;2022-08-01T10:40:02;28.45;50.19
73149;SHT30;61346;48.930;2.266;2022-08-01T10:42:30;28.44;50.09
73149;SHT30;61346;48.930;2.266;2022-08-01T10:44:56;28.42;50.00
73149;SHT30;61346;48.930;2.266;2022-08-01T10:47:35;28.41;50.18
73149;SHT30;61346;48.930;2.266;2022-08-01T10:53:09;28.68;49.71
73149;SHT30;61346;48.930;2.266;2022-08-01T10:58:35;28.39;49.56
73149;SHT30;61346;48.930;2.266;2022-08-01T11:03:45;28.51;49.94
73149;SHT30;61346;48.930;2.266;2022-08-01T11:06:24;28.75;49.53
73149;SHT30;61346;48.930;2.266;2022-08-01T11:08:52;28.90;48.99
73149;SHT30;61346;48.930;2.266;2022-08-01T11:11:19;28.84;48.96
73149;SHT30;61346;48.930;2.266;2022-08-01T11:16:30;28.79;48.70
73149;SHT30;61346;48.930;2.266;2022-08-01T11:18:56;28.76;48.89
73149;SHT30;61346;48.930;2.266;2022-08-01T11:21:22;28.66;49.47
73149;SHT30;61346;48.930;2.266;2022-08-01T11:24:07;28.60;49.39
73149;SHT30;61346;48.930;2.266;2022-08-01T11:26:33;28.48;49.78
73149;SHT30;61346;48.930;2.266;2022-08-01T11:29:13;28.51;49.66
73149;SHT30;61346;48.930;2.266;2022-08-01T11:31:39;28.44;49.69
73149;SHT30;61346;48.930;2.266;2022-08-01T11:34:06;28.29;50.26
73149;SHT30;61346;48.930;2.266;2022-08-01T11:36:31;28.18;50.59
73149;SHT30;61346;48.930;2.266;2022-08-01T11:41:28;28.34;50.43
73149;SHT30;61346;48.930;2.266;2022-08-01T11:49:43;28.86;48.99
73149;SHT30;61346;48.930;2.266;2022-08-01T11:52:27;28.96;47.81
73149;SHT30;61346;48.930;2.266;2022-08-01T11:54:55;28.80;47.95
73149;SHT30;61346;48.930;2.266;2022-08-01T11:57:25;28.63;48.28
73149;SHT30;61346;48.930;2.266;2022-08-01T11:59:54;28.63;48.64
73149;SHT30;61346;48.930;2.266;2022-08-01T12:02:25;28.84;48.66
73149;SHT30;61346;48.930;2.266;2022-08-01T12:05:07;29.03;47.88
73149;SHT30;61346;48.930;2.266;2022-08-01T12:07:34;29.13;47.40
73149;SHT30;61346;48.930;2.266;2022-08-01T12:10:13;29.02;47.01
73149;SHT30;61346;48.930;2.266;2022-08-01T12:12:54;28.99;46.75
73149;SHT30;61346;48.930;2.266;2022-08-01T12:15:23;28.92;47.58
73149;SHT30;61346;48.930;2.266;2022-08-01T12:17:56;28.90;47.91
73149;SHT30;61346;48.930;2.266;2022-08-01T12:20:23;28.84;48.21
73149;SHT30;61346;48.930;2.266;2022-08-01T12:22:53;28.97;48.16
73149;SHT30;61346;48.930;2.266;2022-08-01T12:25:19;29.00;47.67
73149;SHT30;61346;48.930;2.266;2022-08-01T12:27:47;29.11;47.64
73149;SHT30;61346;48.930;2.266;2022-08-01T12:30:18;29.20;47.23
73149;SHT30;61346;48.930;2.266;2022-08-01T12:32:46;29.23;46.78
73149;SHT30;61346;48.930;2.266;2022-08-01T12:35:18;29.39;46.94
73149;SHT30;61346;48.930;2.266;2022-08-01T12:37:51;29.59;46.66
73149;SHT30;61346;48.930;2.266;2022-08-01T12:42:51;29.59;46.47
73149;SHT30;61346;48.930;2.266;2022-08-01T12:45:25;29.80;46.28
73149;SHT30;61346;48.930;2.266;2022-08-01T12:47:53;30.27;45.39
73149;SHT30;61346;48.930;2.266;2022-08-01T12:50:21;30.68;43.69
73149;SHT30;61346;48.930;2.266;2022-08-01T12:52:47;30.85;43.82
73149;SHT30;61346;48.930;2.266;2022-08-01T12:55:21;31.09;42.96
73149;SHT30;61346;48.930;2.266;2022-08-01T12:57:48;32.10;41.33
73149;SHT30;61346;48.930;2.266;2022-08-01T13:00:26;33.53;39.23
73149;SHT30;61346;48.930;2.266;2022-08-01T13:05:47;34.21;38.20
73149;SHT30;61346;48.930;2.266;2022-08-01T13:08:18;33.86;37.95
73149;SHT30;61346;48.930;2.266;2022-08-01T13:10:44;33.57;39.32
73149;SHT30;61346;48.930;2.266;2022-08-01T13:13:10;33.62;37.94
73149;SHT30;61346;48.930;2.266;2022-08-01T13:15:41;33.59;38.61
73149;SHT30;61346;48.930;2.266;2022-08-01T13:18:29;33.46;38.00
73149;SHT30;61346;48.930;2.266;2022-08-01T13:21:14;33.19;38.35
73149;SHT30;61346;48.930;2.266;2022-08-01T13:23:42;33.15;38.73
73149;SHT30;61346;48.930;2.266;2022-08-01T13:26:47;33.60;39.21
73149;SHT30;61346;48.930;2.266;2022-08-01T13:29:15;33.98;37.62
73149;SHT30;61346;48.930;2.266;2022-08-01T13:31:41;33.89;37.56
73149;SHT30;61346;48.930;2.266;2022-08-01T13:34:08;33.66;36.77
73149;SHT30;61346;48.930;2.266;2022-08-01T13:36:34;33.47;37.80
73149;SHT30;61346;48.930;2.266;2022-08-01T13:39:01;33.46;38.52
73149;SHT30;61346;48.930;2.266;2022-08-01T13:41:46;33.43;38.37
73149;SHT30;61346;48.930;2.266;2022-08-01T13:44:13;33.28;38.28
73149;SHT30;61346;48.930;2.266;2022-08-01T13:46:39;33.21;38.74
73149;SHT30;61346;48.930;2.266;2022-08-01T13:49:06;33.25;38.17
73149;SHT30;61346;48.930;2.266;2022-08-01T13:51:32;33.62;37.00
73149;SHT30;61346;48.930;2.266;2022-08-01T13:53:57;34.04;36.38
73149;SHT30;61346;48.930;2.266;2022-08-01T13:56:24;34.18;36.35
73149;SHT30;61346;48.930;2.266;2022-08-01T13:58:50;34.21;35.84
73149;SHT30;61346;48.930;2.266;2022-08-01T14:01:15;34.04;35.51
73149;SHT30;61346;48.930;2.266;2022-08-01T14:03:41;33.83;37.26
73149;SHT30;61346;48.930;2.266;2022-08-01T14:06:06;34.00;36.75
73149;SHT30;61346;48.930;2.266;2022-08-01T14:08:32;33.90;36.74
73149;SHT30;61346;48.930;2.266;2022-08-01T14:10:57;33.55;36.14
73149;SHT30;61346;48.930;2.266;2022-08-01T14:13:27;33.17;37.43
73149;SHT30;61346;48.930;2.266;2022-08-01T14:15:53;32.81;36.72
73149;SHT30;61346;48.930;2.266;2022-08-01T14:18:22;32.63;37.23
73149;SHT30;61346;48.930;2.266;2022-08-01T14:20:47;32.59;37.57
73149;SHT30;61346;48.930;2.266;2022-08-01T14:23:13;32.52;38.20
73149;SHT30;61346;48.930;2.266;2022-08-01T14:25:39;32.39;37.70
73149;SHT30;61346;48.930;2.266;2022-08-01T14:28:05;32.20;37.66
73149;SHT30;61346;48.930;2.266;2022-08-01T14:30:31;32.05;38.38
73149;SHT30;61346;48.930;2.266;2022-08-01T14:32:57;31.82;38.41
73149;SHT30;61346;48.930;2.266;2022-08-01T14:35:22;31.77;38.12
73149;SHT30;61346;48.930;2.266;2022-08-01T14:37:48;31.61;38.81
73149;SHT30;61346;48.930;2.266;2022-08-01T14:40:13;31.61;38.42
73149;SHT30;61346;48.930;2.266;2022-08-01T14:42:39;31.53;38.68
73149;SHT30;61346;48.930;2.266;2022-08-01T14:45:05;31.30;39.22
73149;SHT30;61346;48.930;2.266;2022-08-01T14:47:38;31.15;39.55
73149;SHT30;61346;48.930;2.266;2022-08-01T14:50:06;30.92;39.59
73149;SHT30;61346;48.930;2.266;2022-08-01T14:52:32;30.72;39.81
73149;SHT30;61346;48.930;2.266;2022-08-01T14:54:58;30.52;40.38
73149;SHT30;61346;48.930;2.266;2022-08-01T15:00:33;30.27;41.12
73149;SHT30;61346;48.930;2.266;2022-08-01T15:03:03;30.16;41.76
73149;SHT30;61346;48.930;2.266;2022-08-01T15:05:42;30.00;41.60
73149;SHT30;61346;48.930;2.266;2022-08-01T15:08:12;29.89;42.24
73149;SHT30;61346;48.930;2.266;2022-08-01T15:10:37;29.92;42.71
73149;SHT30;61346;48.930;2.266;2022-08-01T15:13:03;29.92;42.37
73149;SHT30;61346;48.930;2.266;2022-08-01T15:15:33;29.83;42.71
73149;SHT30;61346;48.930;2.266;2022-08-01T15:17:58;29.82;42.87
73149;SHT30;61346;48.930;2.266;2022-08-01T15:26:28;30.10;42.99
73149;SHT30;61346;48.930;2.266;2022-08-01T15:53:12;30.83;41.53
73149;SHT30;61346;48.930;2.266;2022-08-01T15:55:57;31.09;40.91
73149;SHT30;61346;48.930;2.266;2022-08-01T15:58:24;32.09;39.78
73149;SHT30;61346;48.930;2.266;2022-08-01T16:00:49;32.33;39.81
73149;SHT30;61346;48.930;2.266;2022-08-01T16:03:14;32.27;40.14
73149;SHT30;61346;48.930;2.266;2022-08-01T16:05:40;32.19;39.95
73149;SHT30;61346;48.930;2.266;2022-08-01T16:08:17;32.01;38.72
73149;SHT30;61346;48.930;2.266;2022-08-01T16:14:34;31.72;39.03
73149;SHT30;61346;48.930;2.266;2022-08-01T16:16:59;31.67;39.34
73149;SHT30;61346;48.930;2.266;2022-08-01T16:19:25;31.89;39.63
73149;SHT30;61346;48.930;2.266;2022-08-01T16:21:50;32.95;39.64
73149;SHT30;61346;48.930;2.266;2022-08-01T16:24:16;34.94;37.25
73149;SHT30;61346;48.930;2.266;2022-08-01T16:26:41;36.88;35.25
73149;SHT30;61346;48.930;2.266;2022-08-01T16:29:27;37.94;32.65
73149;SHT30;61346;48.930;2.266;2022-08-01T16:32:02;37.36;31.99
73149;SHT30;61346;48.930;2.266;2022-08-01T16:34:28;36.48;33.71
73149;SHT30;61346;48.930;2.266;2022-08-01T16:37:04;35.66;34.89
73149;SHT30;61346;48.930;2.266;2022-08-01T16:40:06;35.01;35.71
73149;SHT30;61346;48.930;2.266;2022-08-01T16:42:33;34.53;36.03
73149;SHT30;61346;48.930;2.266;2022-08-01T16:45:12;33.96;35.42
73149;SHT30;61346;48.930;2.266;2022-08-01T16:47:46;33.45;36.72